createdAt,value
2019-05-18T00:01:48.279Z,14.40
2019-05-18T00:04:18.650Z,14.40
2019-05-18T00:06:49.006Z,14.40
2019-05-18T00:09:19.515Z,14.50
2019-05-18T00:11:49.883Z,14.60
2019-05-18T00:14:20.308Z,14.50
2019-05-18T00:16:50.683Z,14.50
2019-05-18T00:19:21.083Z,14.40
2019-05-18T00:21:51.478Z,14.40
2019-05-18T00:24:21.945Z,14.30
2019-05-18T00:26:52.363Z,14.30
2019-05-18T00:29:22.922Z,14.30
2019-05-18T00:31:53.326Z,14.30
2019-05-18T00:34:23.835Z,14.30
2019-05-18T00:36:54.291Z,14.30
2019-05-18T00:39:24.686Z,14.30
2019-05-18T00:41:55.155Z,14.30
2019-05-18T00:44:25.589Z,14.20
2019-05-18T00:46:55.944Z,14.10
2019-05-18T00:49:26.570Z,14.10
2019-05-18T00:51:57.104Z,14.20
2019-05-18T00:54:27.787Z,14.20
2019-05-18T00:56:58.556Z,14.20
2019-05-18T00:59:29.167Z,14.20
2019-05-18T01:01:59.801Z,14.10
2019-05-18T01:04:30.435Z,14.00
2019-05-18T01:07:01.075Z,14.00
2019-05-18T01:09:31.702Z,14.00
2019-05-18T01:12:02.149Z,14.10
2019-05-18T01:14:32.543Z,14.10
2019-05-18T01:17:02.912Z,13.90
2019-05-18T01:19:33.300Z,13.90
2019-05-18T01:22:03.637Z,14.00
2019-05-18T01:24:34.007Z,14.00
2019-05-18T01:27:04.365Z,14.00
2019-05-18T01:29:34.922Z,14.00
2019-05-18T01:32:05.454Z,14.00
2019-05-18T01:34:36.087Z,13.90
2019-05-18T01:37:06.465Z,13.80
2019-05-18T01:39:36.843Z,13.80
2019-05-18T01:42:07.202Z,13.90
2019-05-18T01:44:37.569Z,13.90
2019-05-18T01:47:07.930Z,13.80
2019-05-18T01:49:38.328Z,13.90
2019-05-18T01:52:08.760Z,13.80
2019-05-18T01:54:39.142Z,13.70
2019-05-18T01:57:09.755Z,13.60
2019-05-18T01:59:40.151Z,13.70
2019-05-18T02:02:10.543Z,13.70
2019-05-18T02:04:41.034Z,13.70
2019-05-18T02:07:11.437Z,13.70
2019-05-18T02:09:41.850Z,13.80
2019-05-18T02:12:12.294Z,13.70
2019-05-18T02:14:42.699Z,13.80
2019-05-18T02:17:13.097Z,13.90
2019-05-18T02:19:43.498Z,13.80
2019-05-18T02:22:14.271Z,13.80
2019-05-18T02:24:44.670Z,13.80
2019-05-18T02:27:15.032Z,13.80
2019-05-18T02:29:45.455Z,13.80
2019-05-18T02:32:15.834Z,13.60
2019-05-18T02:34:46.313Z,13.50
2019-05-18T02:37:16.795Z,13.50
2019-05-18T02:39:48.858Z,13.50
2019-05-18T02:42:19.270Z,13.50
2019-05-18T02:44:49.678Z,13.60
2019-05-18T02:47:20.073Z,13.70
2019-05-18T02:49:50.557Z,13.70
2019-05-18T02:52:20.930Z,13.70
2019-05-18T02:54:51.327Z,13.70
2019-05-18T02:57:21.758Z,13.60
2019-05-18T02:59:52.142Z,13.60
2019-05-18T03:02:22.509Z,13.70
2019-05-18T03:04:52.923Z,13.60
2019-05-18T03:07:23.281Z,13.70
2019-05-18T03:09:53.746Z,13.60
2019-05-18T03:12:24.215Z,13.60
2019-05-18T03:14:54.604Z,13.70
2019-05-18T03:17:25.276Z,13.60
2019-05-18T03:19:55.671Z,13.60
2019-05-18T03:22:26.045Z,13.60
2019-05-18T03:24:56.465Z,13.60
2019-05-18T03:27:26.813Z,13.60
2019-05-18T03:29:57.268Z,13.60
2019-05-18T03:32:27.689Z,13.60
2019-05-18T03:34:58.099Z,13.60
2019-05-18T03:37:28.502Z,13.60
2019-05-18T03:39:58.956Z,13.50
2019-05-18T03:42:29.387Z,13.40
2019-05-18T03:44:59.864Z,13.40
2019-05-18T03:47:30.237Z,13.30
2019-05-18T03:50:00.625Z,13.30
2019-05-18T03:52:33.914Z,13.30
2019-05-18T03:55:04.491Z,13.30
2019-05-18T03:57:34.864Z,13.30
2019-05-18T04:00:06.049Z,13.30
2019-05-18T04:02:36.431Z,13.30
2019-05-18T04:05:06.937Z,13.10
2019-05-18T04:07:37.345Z,13.20
2019-05-18T04:10:08.134Z,13.10
2019-05-18T04:12:38.522Z,13.20
2019-05-18T04:15:09.410Z,13.20
2019-05-18T04:17:39.811Z,13.20
2019-05-18T04:20:10.336Z,13.20
2019-05-18T04:22:40.709Z,13.10
2019-05-18T04:25:11.091Z,13.00
2019-05-18T04:27:41.481Z,13.00
2019-05-18T04:30:11.988Z,12.80
2019-05-18T04:32:42.392Z,12.90
2019-05-18T04:35:12.878Z,13.00
2019-05-18T04:37:43.240Z,13.00
2019-05-18T04:40:13.927Z,13.00
2019-05-18T04:42:44.280Z,13.10
2019-05-18T04:45:14.691Z,13.10
2019-05-18T04:47:48.435Z,13.10
2019-05-18T04:50:17.223Z,13.30
2019-05-18T04:52:47.610Z,13.30
2019-05-18T04:55:17.988Z,13.30
2019-05-18T04:57:48.385Z,13.40
2019-05-18T05:00:18.759Z,13.50
2019-05-18T05:02:49.133Z,13.50
2019-05-18T05:05:19.559Z,13.50
2019-05-18T05:07:49.974Z,13.50
2019-05-18T05:10:20.409Z,13.70
2019-05-18T05:12:50.764Z,13.70
2019-05-18T05:15:21.154Z,13.60
2019-05-18T05:17:51.543Z,13.60
2019-05-18T05:20:21.997Z,13.60
2019-05-18T05:22:52.330Z,13.70
2019-05-18T05:25:22.715Z,13.80
2019-05-18T05:27:53.076Z,13.80
2019-05-18T05:30:23.460Z,13.80
2019-05-18T05:32:53.811Z,13.80
2019-05-18T05:35:24.216Z,13.90
2019-05-18T05:37:54.590Z,13.90
2019-05-18T05:40:28.617Z,13.80
2019-05-18T05:42:59.008Z,13.80
2019-05-18T05:45:29.385Z,13.80
2019-05-18T05:47:59.778Z,13.90
2019-05-18T05:50:35.889Z,14.00
2019-05-18T05:53:02.213Z,14.10
2019-05-18T05:55:32.614Z,14.10
2019-05-18T05:58:02.990Z,14.20
2019-05-18T06:00:33.387Z,14.20
2019-05-18T06:03:03.829Z,14.20
2019-05-18T06:05:34.222Z,14.30
2019-05-18T06:08:04.610Z,14.40
2019-05-18T06:10:35.042Z,14.40
2019-05-18T06:13:05.399Z,14.50
2019-05-18T06:15:35.782Z,14.60
2019-05-18T06:18:06.184Z,14.70
2019-05-18T06:20:50.401Z,14.80
2019-05-18T06:23:08.633Z,14.80
2019-05-18T06:25:39.010Z,14.80
2019-05-18T06:28:09.524Z,14.90
2019-05-18T06:30:39.890Z,14.90
2019-05-18T06:33:10.373Z,14.90
2019-05-18T06:35:40.743Z,15.10
2019-05-18T06:38:11.124Z,15.20
2019-05-18T06:40:46.823Z,15.30
2019-05-18T06:43:17.216Z,15.50
2019-05-18T06:45:47.654Z,15.60
2019-05-18T06:48:18.122Z,15.90
2019-05-18T06:50:48.477Z,15.90
2019-05-18T06:53:20.568Z,16.10
2019-05-18T06:55:53.353Z,16.10
2019-05-18T06:58:25.682Z,16.30
2019-05-18T07:00:56.017Z,16.50
2019-05-18T07:03:26.437Z,16.60
2019-05-18T07:05:56.810Z,16.80
2019-05-18T07:08:27.190Z,16.90
2019-05-18T07:10:57.624Z,17.00
2019-05-18T07:13:28.410Z,17.10
2019-05-18T07:15:58.819Z,17.20
2019-05-18T07:18:29.220Z,17.40
2019-05-18T07:20:59.561Z,17.60
2019-05-18T07:23:29.960Z,17.70
2019-05-18T07:26:00.338Z,17.70
2019-05-18T07:28:30.731Z,17.60
2019-05-18T07:31:01.093Z,17.30
2019-05-18T07:33:31.578Z,17.30
2019-05-18T07:36:01.941Z,17.40
2019-05-18T07:38:32.342Z,17.50
2019-05-18T07:41:02.708Z,17.50
2019-05-18T07:43:33.243Z,17.60
2019-05-18T07:46:03.711Z,17.70
2019-05-18T07:48:34.302Z,17.70
2019-05-18T07:51:04.856Z,17.70
2019-05-18T07:53:35.331Z,17.60
2019-05-18T07:56:05.869Z,17.50
2019-05-18T07:58:37.064Z,17.40
2019-05-18T08:01:07.630Z,17.40
2019-05-18T08:03:38.204Z,17.40
2019-05-18T08:06:08.775Z,17.50
2019-05-18T08:08:39.362Z,17.50
2019-05-18T08:11:09.839Z,17.70
2019-05-18T08:13:40.351Z,17.90
2019-05-18T08:16:10.848Z,18.00
2019-05-18T08:18:41.405Z,17.90
2019-05-18T08:21:11.847Z,17.80
2019-05-18T08:23:42.250Z,17.90
2019-05-18T08:26:12.751Z,17.80
2019-05-18T08:28:43.375Z,17.70
2019-05-18T08:31:13.873Z,17.70
2019-05-18T08:33:44.440Z,17.70
2019-05-18T08:36:14.996Z,17.90
2019-05-18T08:38:45.557Z,18.20
2019-05-18T08:41:16.076Z,18.40
2019-05-18T08:43:46.685Z,18.60
2019-05-18T08:46:17.239Z,18.80
2019-05-18T08:48:47.807Z,18.70
2019-05-18T08:51:18.323Z,18.60
2019-05-18T08:53:48.933Z,18.60
2019-05-18T08:56:19.505Z,18.90
2019-05-18T08:58:50.147Z,18.90
2019-05-18T09:01:20.603Z,18.90
2019-05-18T09:03:51.206Z,18.90
2019-05-18T09:06:21.705Z,18.80
2019-05-18T09:08:52.296Z,18.70
2019-05-18T09:11:22.812Z,18.80
2019-05-18T09:13:53.348Z,18.70
2019-05-18T09:16:23.861Z,18.70
2019-05-18T09:18:54.430Z,18.90
2019-05-18T09:21:24.987Z,19.00
2019-05-18T09:23:55.533Z,19.10
2019-05-18T09:26:26.034Z,19.30
2019-05-18T09:28:56.659Z,19.40
2019-05-18T09:31:27.201Z,19.40
2019-05-18T09:33:57.705Z,19.30
2019-05-18T09:36:28.378Z,19.20
2019-05-18T09:38:58.920Z,19.40
2019-05-18T09:41:29.480Z,19.60
2019-05-18T09:43:59.966Z,19.60
2019-05-18T09:46:30.564Z,19.80
2019-05-18T09:49:01.110Z,19.90
2019-05-18T09:51:31.637Z,20.30
2019-05-18T09:54:02.218Z,20.40
2019-05-18T09:56:32.733Z,20.50
2019-05-18T09:59:03.331Z,20.50
2019-05-18T10:01:33.889Z,20.60
2019-05-18T10:04:04.581Z,20.40
2019-05-18T10:06:35.234Z,20.40
2019-05-18T10:09:09.146Z,20.20
2019-05-18T10:11:39.680Z,19.90
2019-05-18T10:14:11.509Z,19.90
2019-05-18T10:16:42.147Z,20.00
2019-05-18T10:19:12.699Z,20.10
2019-05-18T10:21:43.269Z,20.30
2019-05-18T10:24:13.778Z,20.40
2019-05-18T10:26:44.298Z,20.40
2019-05-18T10:29:14.793Z,20.30
2019-05-18T10:31:45.420Z,20.30
2019-05-18T10:34:16.259Z,20.30
2019-05-18T10:36:46.895Z,20.20
2019-05-18T10:39:17.526Z,20.20
2019-05-18T10:41:48.037Z,20.20
2019-05-18T10:44:18.538Z,20.10
2019-05-18T10:46:49.050Z,20.20
2019-05-18T10:49:19.562Z,20.30
2019-05-18T10:51:50.030Z,20.40
2019-05-18T10:54:20.575Z,20.50
2019-05-18T10:56:51.114Z,20.50
2019-05-18T10:59:21.754Z,20.50
2019-05-18T11:01:52.331Z,20.50
2019-05-18T11:04:22.830Z,20.50
2019-05-18T11:06:53.310Z,20.40
2019-05-18T11:09:23.879Z,20.40
2019-05-18T11:11:54.425Z,20.50
2019-05-18T11:14:24.939Z,20.60
2019-05-18T11:16:55.451Z,20.70
2019-05-18T11:19:26.008Z,20.70
2019-05-18T11:21:56.580Z,20.70
2019-05-18T11:24:27.164Z,20.70
2019-05-18T11:26:57.702Z,20.70
2019-05-18T11:29:28.278Z,20.80
2019-05-18T11:31:58.875Z,20.80
2019-05-18T11:34:29.356Z,20.90
2019-05-18T11:37:03.078Z,20.90
2019-05-18T11:39:32.141Z,20.80
2019-05-18T11:42:02.777Z,20.90
2019-05-18T11:44:33.353Z,20.80
2019-05-18T11:47:03.948Z,20.90
2019-05-18T11:49:34.587Z,21.00
2019-05-18T11:52:05.145Z,21.20
2019-05-18T11:54:35.657Z,21.10
2019-05-18T11:57:06.392Z,21.10
2019-05-18T11:59:37.017Z,21.10
2019-05-18T12:02:07.620Z,21.10
2019-05-18T12:04:38.138Z,21.10
2019-05-18T12:07:08.780Z,21.10
2019-05-18T12:09:39.404Z,21.00
2019-05-18T12:12:09.987Z,21.10
2019-05-18T12:14:40.591Z,21.10
2019-05-18T12:17:11.136Z,21.30
2019-05-18T12:19:41.629Z,21.40
2019-05-18T12:22:12.210Z,21.40
2019-05-18T12:24:42.751Z,21.60
2019-05-18T12:27:13.294Z,21.70
2019-05-18T12:29:43.825Z,21.80
2019-05-18T12:32:14.437Z,21.80
2019-05-18T12:34:45.513Z,21.90
2019-05-18T12:37:22.736Z,21.70
2019-05-18T12:39:53.868Z,21.60
2019-05-18T12:42:24.474Z,21.60
2019-05-18T12:44:54.938Z,21.60
2019-05-18T12:47:25.503Z,21.60
2019-05-18T12:49:56.095Z,21.60
2019-05-18T12:52:26.778Z,21.50
2019-05-18T12:54:57.265Z,21.60
2019-05-18T12:57:27.794Z,21.70
2019-05-18T12:59:58.357Z,21.70
2019-05-18T13:02:28.983Z,21.70
2019-05-18T13:04:59.566Z,21.70
2019-05-18T13:07:30.186Z,21.60
2019-05-18T13:10:00.711Z,21.60
2019-05-18T13:12:31.329Z,21.60
2019-05-18T13:15:01.957Z,21.50
2019-05-18T13:17:32.549Z,21.50
2019-05-18T13:20:03.038Z,21.50
2019-05-18T13:22:33.592Z,21.50
2019-05-18T13:25:04.238Z,21.50
2019-05-18T13:27:39.569Z,21.50
2019-05-18T13:30:07.478Z,21.50
2019-05-18T13:32:38.131Z,21.50
2019-05-18T13:35:09.110Z,21.40
2019-05-18T13:37:39.683Z,21.50
2019-05-18T13:40:10.642Z,21.50
2019-05-18T13:42:41.293Z,21.30
2019-05-18T13:45:13.622Z,21.30
2019-05-18T13:47:44.281Z,21.30
2019-05-18T13:50:15.282Z,21.30
2019-05-18T13:52:45.851Z,21.30
2019-05-18T13:55:16.405Z,21.20
2019-05-18T13:57:47.060Z,21.00
2019-05-18T14:00:19.346Z,20.10
2019-05-18T14:02:49.989Z,19.90
2019-05-18T14:05:20.462Z,19.40
2019-05-18T14:07:51.050Z,18.80
2019-05-18T14:10:21.781Z,18.50
2019-05-18T14:12:52.368Z,18.00
2019-05-18T14:15:23.336Z,17.20
2019-05-18T14:17:53.915Z,16.30
2019-05-18T14:20:26.527Z,15.80
2019-05-18T14:22:56.778Z,15.40
2019-05-18T14:25:27.476Z,15.20
2019-05-18T14:27:58.129Z,15.00
2019-05-18T14:30:28.733Z,15.00
2019-05-18T14:32:59.390Z,15.00
2019-05-18T14:35:33.312Z,14.90
2019-05-18T14:38:02.331Z,14.70
2019-05-18T14:40:32.897Z,14.70
2019-05-18T14:43:03.500Z,14.70
2019-05-18T14:45:34.207Z,14.50
2019-05-18T14:48:04.852Z,14.50
2019-05-18T14:50:35.609Z,14.40
2019-05-18T14:53:06.095Z,14.50
2019-05-18T14:55:36.591Z,14.60
2019-05-18T14:58:07.151Z,14.60
2019-05-18T15:00:37.759Z,14.70
2019-05-18T15:03:08.302Z,14.70
2019-05-18T15:05:39.001Z,14.60
2019-05-18T15:08:09.854Z,14.70
2019-05-18T15:10:40.414Z,14.50
2019-05-18T15:13:10.993Z,14.50
2019-05-18T15:15:41.589Z,14.40
2019-05-18T15:18:12.175Z,14.30
2019-05-18T15:20:42.853Z,14.30
2019-05-18T15:23:13.441Z,14.30
2019-05-18T15:25:50.821Z,14.40
2019-05-18T15:28:16.267Z,14.50
2019-05-18T15:30:46.816Z,14.50
2019-05-18T15:33:17.401Z,14.60
2019-05-18T15:35:47.916Z,14.70
2019-05-18T15:38:18.542Z,14.80
2019-05-18T15:40:49.146Z,14.90
2019-05-18T15:43:19.657Z,15.00
2019-05-18T15:45:50.267Z,15.10
2019-05-18T15:48:20.823Z,15.00
2019-05-18T15:50:51.439Z,15.00
2019-05-18T15:53:21.958Z,15.00
2019-05-18T15:56:04.897Z,15.10
2019-05-18T15:58:24.805Z,15.20
2019-05-18T16:00:55.418Z,15.30
2019-05-18T16:03:25.921Z,15.20
2019-05-18T16:05:56.346Z,15.10
2019-05-18T16:08:26.836Z,15.20
2019-05-18T16:10:57.462Z,15.30
2019-05-18T16:13:28.018Z,15.40
2019-05-18T16:15:58.631Z,15.50
2019-05-18T16:18:29.192Z,15.50
2019-05-18T16:21:01.921Z,15.30
2019-05-18T16:23:32.584Z,15.20
2019-05-18T16:26:03.179Z,14.90
2019-05-18T16:28:33.724Z,14.90
2019-05-18T16:31:04.338Z,15.00
2019-05-18T16:33:34.869Z,15.10
2019-05-18T16:36:05.475Z,15.30
2019-05-18T16:38:36.013Z,15.50
2019-05-18T16:41:06.700Z,15.60
2019-05-18T16:43:37.249Z,15.70
2019-05-18T16:46:07.915Z,15.70
2019-05-18T16:48:39.471Z,15.80
2019-05-18T16:51:10.166Z,15.90
2019-05-18T16:53:40.733Z,15.90
2019-05-18T16:56:11.309Z,15.90
2019-05-18T16:58:41.820Z,15.90
2019-05-18T17:01:12.286Z,15.80
2019-05-18T17:03:42.844Z,15.80
2019-05-18T17:06:16.336Z,15.80
2019-05-18T17:08:45.679Z,15.80
2019-05-18T17:11:16.233Z,15.90
2019-05-18T17:13:46.729Z,15.90
2019-05-18T17:16:17.274Z,15.90
2019-05-18T17:18:47.794Z,16.00
2019-05-18T17:21:18.371Z,16.00
2019-05-18T17:23:48.909Z,16.00
2019-05-18T17:26:19.574Z,16.00
2019-05-18T17:28:50.307Z,16.00
2019-05-18T17:31:21.079Z,15.90
2019-05-18T17:33:51.838Z,15.90
2019-05-18T17:36:22.619Z,15.90
2019-05-18T17:38:53.391Z,15.90
2019-05-18T17:41:24.151Z,15.80
2019-05-18T17:43:54.781Z,15.80
2019-05-18T17:46:25.558Z,15.70
2019-05-18T17:48:56.167Z,15.70
2019-05-18T17:51:26.865Z,15.70
2019-05-18T17:53:57.433Z,15.60
2019-05-18T17:56:28.025Z,15.60
2019-05-18T17:58:58.729Z,15.60
2019-05-18T18:01:29.395Z,15.60
2019-05-18T18:04:00.284Z,15.60
2019-05-18T18:06:30.933Z,15.60
2019-05-18T18:09:01.512Z,15.60
2019-05-18T18:11:32.183Z,15.60
2019-05-18T18:14:02.805Z,15.60
2019-05-18T18:16:33.423Z,15.70
2019-05-18T18:19:04.115Z,15.60
2019-05-18T18:21:34.747Z,15.60
2019-05-18T18:24:05.491Z,15.60
2019-05-18T18:26:36.052Z,15.70
2019-05-18T18:29:06.727Z,15.60
2019-05-18T18:31:37.213Z,15.60
2019-05-18T18:34:07.803Z,15.60
2019-05-18T18:36:38.387Z,15.50
2019-05-18T18:39:09.280Z,15.50
2019-05-18T18:41:39.891Z,15.30
2019-05-18T18:44:10.591Z,15.20
2019-05-18T18:46:41.136Z,15.20
2019-05-18T18:49:11.923Z,15.20
2019-05-18T18:51:42.719Z,15.30
2019-05-18T18:54:13.407Z,15.40
2019-05-18T18:56:43.966Z,15.40
2019-05-18T18:59:14.737Z,15.40
2019-05-18T19:01:45.412Z,15.40
2019-05-18T19:04:16.275Z,15.30
2019-05-18T19:06:46.890Z,15.30
2019-05-18T19:09:17.598Z,15.20
2019-05-18T19:11:48.428Z,15.20
2019-05-18T19:14:19.151Z,15.20
2019-05-18T19:16:49.857Z,15.20
2019-05-18T19:19:20.612Z,15.00
2019-05-18T19:21:51.398Z,15.00
2019-05-18T19:24:21.984Z,14.90
2019-05-18T19:26:52.829Z,14.90
2019-05-18T19:29:23.596Z,14.80
2019-05-18T19:31:54.256Z,14.90
2019-05-18T19:34:25.060Z,15.00
2019-05-18T19:36:55.776Z,14.80
2019-05-18T19:39:26.509Z,14.90
2019-05-18T19:41:57.535Z,15.00
2019-05-18T19:44:28.060Z,14.90
2019-05-18T19:46:58.846Z,14.90
2019-05-18T19:49:29.547Z,14.90
2019-05-18T19:52:00.250Z,15.00
2019-05-18T19:54:31.105Z,15.00
2019-05-18T19:57:01.759Z,14.90
2019-05-18T19:59:32.430Z,15.00
2019-05-18T20:02:03.119Z,14.90
2019-05-18T20:04:33.831Z,14.90
2019-05-18T20:07:04.503Z,14.90
2019-05-18T20:09:35.224Z,14.80
2019-05-18T20:12:06.223Z,14.80
2019-05-18T20:14:37.031Z,14.70
2019-05-18T20:17:08.112Z,14.70
2019-05-18T20:19:39.879Z,14.70
2019-05-18T20:22:10.728Z,14.60
2019-05-18T20:24:41.525Z,14.70
2019-05-18T20:27:12.113Z,14.80
2019-05-18T20:29:42.734Z,14.70
2019-05-18T20:32:13.277Z,14.80
2019-05-18T20:34:43.891Z,14.70
2019-05-18T20:37:14.395Z,14.80
2019-05-18T20:39:45.028Z,14.70
2019-05-18T20:42:15.658Z,14.70
2019-05-18T20:44:46.283Z,14.70
2019-05-18T20:47:16.784Z,14.60
2019-05-18T20:49:47.433Z,14.70
2019-05-18T20:52:17.942Z,14.60
2019-05-18T20:54:48.638Z,14.60
2019-05-18T20:57:19.310Z,14.50
2019-05-18T20:59:49.991Z,14.50
2019-05-18T21:02:20.610Z,14.60
2019-05-18T21:04:51.169Z,14.50
2019-05-18T21:07:21.648Z,14.40
2019-05-18T21:09:52.123Z,14.40
2019-05-18T21:12:22.583Z,14.50
2019-05-18T21:14:53.097Z,14.40
2019-05-18T21:17:23.610Z,14.40
2019-05-18T21:19:54.149Z,14.40
2019-05-18T21:22:24.659Z,14.30
2019-05-18T21:24:55.302Z,14.30
2019-05-18T21:27:25.758Z,14.40
2019-05-18T21:29:56.427Z,14.30
2019-05-18T21:32:26.983Z,14.40
2019-05-18T21:34:57.570Z,14.40
2019-05-18T21:37:28.135Z,14.40
2019-05-18T21:39:58.630Z,14.30
2019-05-18T21:42:29.230Z,14.30
2019-05-18T21:44:59.816Z,14.30
2019-05-18T21:47:30.437Z,14.30
2019-05-18T21:50:01.021Z,14.40
2019-05-18T21:52:31.648Z,14.30
2019-05-18T21:55:02.322Z,14.30
2019-05-18T21:57:33.180Z,14.10
2019-05-18T22:00:03.853Z,14.00
2019-05-18T22:02:34.420Z,14.00
2019-05-18T22:05:05.631Z,14.10
2019-05-18T22:07:36.372Z,14.10
2019-05-18T22:10:07.362Z,14.20
2019-05-18T22:12:37.917Z,14.10
2019-05-18T22:15:09.303Z,14.20
2019-05-18T22:17:58.781Z,14.20
2019-05-18T22:20:34.310Z,14.20
2019-05-18T22:23:05.496Z,14.20
2019-05-18T22:25:36.189Z,14.10
2019-05-18T22:28:06.668Z,14.00
2019-05-18T22:30:37.353Z,14.00
2019-05-18T22:33:07.889Z,14.10
2019-05-18T22:35:38.419Z,14.10
2019-05-18T22:38:08.944Z,14.00
2019-05-18T22:40:39.578Z,14.10
2019-05-18T22:43:10.083Z,14.10
2019-05-18T22:45:40.634Z,14.10
2019-05-18T22:48:11.225Z,14.20
2019-05-18T22:50:41.819Z,14.20
2019-05-18T22:53:12.359Z,14.20
2019-05-18T22:55:42.870Z,14.20
2019-05-18T22:58:13.489Z,14.00
2019-05-18T23:00:44.134Z,13.90
2019-05-18T23:03:14.685Z,13.90
2019-05-18T23:05:45.244Z,13.90
2019-05-18T23:08:15.742Z,14.00
2019-05-18T23:10:46.234Z,14.10
2019-05-18T23:13:16.783Z,14.20
2019-05-18T23:15:47.316Z,14.20
2019-05-18T23:18:17.860Z,14.20
2019-05-18T23:20:48.409Z,14.10
2019-05-18T23:23:18.975Z,14.20
2019-05-18T23:25:49.487Z,14.20
2019-05-18T23:28:20.053Z,14.20
2019-05-18T23:30:50.578Z,14.20
2019-05-18T23:33:21.147Z,14.10
2019-05-18T23:35:51.642Z,14.10
2019-05-18T23:38:22.199Z,14.10
2019-05-18T23:40:52.758Z,14.00
2019-05-18T23:43:23.285Z,14.00
2019-05-18T23:45:53.827Z,14.00
2019-05-18T23:48:24.352Z,14.10
2019-05-18T23:50:54.860Z,14.10
2019-05-18T23:53:25.382Z,14.10
2019-05-18T23:55:55.889Z,13.90
2019-05-18T23:58:26.499Z,13.80
